createdAt,value
2023-08-31T00:02:21.132Z,12.05
2023-08-31T00:04:51.992Z,12.04
2023-08-31T00:07:19.602Z,12.00
2023-08-31T00:09:47.184Z,11.99
2023-08-31T00:12:14.714Z,11.98
2023-08-31T00:14:42.250Z,11.97
2023-08-31T00:17:10.020Z,11.94
2023-08-31T00:19:37.632Z,11.92
2023-08-31T00:22:05.365Z,11.91
2023-08-31T00:24:33.120Z,11.88
2023-08-31T00:27:00.814Z,11.86
2023-08-31T00:29:28.495Z,11.83
2023-08-31T00:31:56.046Z,11.82
2023-08-31T00:34:23.635Z,11.78
2023-08-31T00:36:52.191Z,11.74
2023-08-31T00:39:22.072Z,11.72
2023-08-31T00:41:51.219Z,11.68
2023-08-31T00:44:20.277Z,11.68
2023-08-31T00:46:50.144Z,11.67
2023-08-31T00:49:18.559Z,11.65
2023-08-31T00:51:51.633Z,11.64
2023-08-31T00:54:19.823Z,11.64
2023-08-31T00:56:47.465Z,11.63
2023-08-31T00:59:15.690Z,11.64
2023-08-31T01:02:02.702Z,11.63
2023-08-31T01:05:04.885Z,11.59
2023-08-31T01:07:48.745Z,11.58
2023-08-31T01:10:37.804Z,11.59
2023-08-31T01:13:16.917Z,11.58
2023-08-31T01:15:50.240Z,11.59
2023-08-31T01:18:22.752Z,11.58
2023-08-31T01:21:03.464Z,11.58
2023-08-31T01:23:57.179Z,11.58
2023-08-31T01:26:26.670Z,11.58
2023-08-31T01:28:57.027Z,11.58
2023-08-31T01:31:24.655Z,11.58
2023-08-31T01:33:52.444Z,11.58
2023-08-31T01:36:31.803Z,11.60
2023-08-31T01:39:27.340Z,11.61
2023-08-31T01:42:02.014Z,11.62
2023-08-31T01:44:35.026Z,11.64
2023-08-31T01:47:07.116Z,11.67
2023-08-31T01:49:41.297Z,11.70
2023-08-31T01:52:08.992Z,11.71
2023-08-31T01:54:38.621Z,11.74
2023-08-31T01:57:07.363Z,11.77
2023-08-31T01:59:44.962Z,11.78
2023-08-31T02:02:12.626Z,11.80
2023-08-31T02:04:40.188Z,11.81
2023-08-31T02:07:07.695Z,11.83
2023-08-31T02:09:35.609Z,11.84
2023-08-31T02:12:06.277Z,11.84
2023-08-31T02:14:34.392Z,11.86
2023-08-31T02:17:02.004Z,11.89
2023-08-31T02:19:29.575Z,11.91
2023-08-31T02:21:57.192Z,11.93
2023-08-31T02:24:24.698Z,11.94
2023-08-31T02:26:53.724Z,11.96
2023-08-31T02:29:21.274Z,11.97
2023-08-31T02:31:48.940Z,11.98
2023-08-31T02:34:16.437Z,12.00
2023-08-31T02:36:43.998Z,12.00
2023-08-31T02:39:11.763Z,12.00
2023-08-31T02:41:39.329Z,12.02
2023-08-31T02:44:06.922Z,12.00
2023-08-31T02:46:34.579Z,12.01
2023-08-31T02:49:02.145Z,12.02
2023-08-31T02:51:29.696Z,12.02
2023-08-31T02:53:57.369Z,12.04
2023-08-31T02:56:25.069Z,12.05
2023-08-31T02:58:52.877Z,12.05
2023-08-31T03:01:20.440Z,12.07
2023-08-31T03:03:51.196Z,12.08
2023-08-31T03:06:18.733Z,12.10
2023-08-31T03:08:46.444Z,12.11
2023-08-31T03:11:15.747Z,12.14
2023-08-31T03:13:43.316Z,12.15
2023-08-31T03:16:10.972Z,12.16
2023-08-31T03:18:38.564Z,12.14
2023-08-31T03:21:06.127Z,12.12
2023-08-31T03:23:33.757Z,12.08
2023-08-31T03:26:07.271Z,12.04
2023-08-31T03:28:35.144Z,12.01
2023-08-31T03:31:03.010Z,12.00
2023-08-31T03:33:30.570Z,12.00
2023-08-31T03:36:05.893Z,12.00
2023-08-31T03:38:38.929Z,11.99
2023-08-31T03:41:07.377Z,11.98
2023-08-31T03:43:36.090Z,11.97
2023-08-31T03:46:03.767Z,11.95
2023-08-31T03:48:31.394Z,11.94
2023-08-31T03:50:59.035Z,11.93
2023-08-31T03:53:26.738Z,11.91
2023-08-31T03:55:58.077Z,11.84
2023-08-31T03:58:26.314Z,11.83
2023-08-31T04:00:55.595Z,11.82
2023-08-31T04:03:25.190Z,11.80
2023-08-31T04:05:56.985Z,11.77
2023-08-31T04:08:24.539Z,11.74
2023-08-31T04:10:52.155Z,11.72
2023-08-31T04:13:19.771Z,11.71
2023-08-31T04:15:48.133Z,11.69
2023-08-31T04:18:16.681Z,11.68
2023-08-31T04:20:54.914Z,11.68
2023-08-31T04:23:22.495Z,11.64
2023-08-31T04:25:52.566Z,11.63
2023-08-31T04:28:20.282Z,11.61
2023-08-31T04:30:47.765Z,11.59
2023-08-31T04:33:15.477Z,11.57
2023-08-31T04:35:43.486Z,11.56
2023-08-31T04:38:12.314Z,11.54
2023-08-31T04:40:40.002Z,11.52
2023-08-31T04:43:07.497Z,11.52
2023-08-31T04:45:35.069Z,11.49
2023-08-31T04:48:02.659Z,11.49
2023-08-31T04:50:30.432Z,11.47
2023-08-31T04:52:57.969Z,11.48
2023-08-31T04:55:26.473Z,11.47
2023-08-31T04:57:54.031Z,11.47
2023-08-31T05:00:21.665Z,11.46
2023-08-31T05:02:49.251Z,11.47
2023-08-31T05:05:16.936Z,11.48
2023-08-31T05:07:44.517Z,11.49
2023-08-31T05:10:12.573Z,11.51
2023-08-31T05:12:40.426Z,11.52
2023-08-31T05:15:09.108Z,11.53
2023-08-31T05:17:36.826Z,11.56
2023-08-31T05:20:05.821Z,11.57
2023-08-31T05:22:33.331Z,11.57
2023-08-31T05:25:01.772Z,11.58
2023-08-31T05:27:29.336Z,11.61
2023-08-31T05:29:56.887Z,11.62
2023-08-31T05:32:24.658Z,11.66
2023-08-31T05:34:52.172Z,11.70
2023-08-31T05:37:19.780Z,11.73
2023-08-31T05:39:50.929Z,11.79
2023-08-31T05:42:19.285Z,11.82
2023-08-31T05:44:46.879Z,11.86
2023-08-31T05:47:14.450Z,11.87
2023-08-31T05:49:41.959Z,11.89
2023-08-31T05:52:09.754Z,11.91
2023-08-31T05:54:37.300Z,11.90
2023-08-31T05:57:06.710Z,11.91
2023-08-31T05:59:34.275Z,11.93
2023-08-31T06:02:05.667Z,11.94
2023-08-31T06:04:33.458Z,11.97
2023-08-31T06:07:00.979Z,12.01
2023-08-31T06:09:28.618Z,12.02
2023-08-31T06:11:56.205Z,12.07
2023-08-31T06:14:23.721Z,12.13
2023-08-31T06:16:51.347Z,12.17
2023-08-31T06:19:18.827Z,12.23
2023-08-31T06:21:46.344Z,12.30
2023-08-31T06:24:14.237Z,12.38
2023-08-31T06:26:42.443Z,12.48
2023-08-31T06:29:11.808Z,12.58
2023-08-31T06:31:39.461Z,12.69
2023-08-31T06:34:07.027Z,12.77
2023-08-31T06:36:36.792Z,12.82
2023-08-31T06:39:05.742Z,12.86
2023-08-31T06:41:33.400Z,12.92
2023-08-31T06:44:01.130Z,13.07
2023-08-31T06:46:29.739Z,13.25
2023-08-31T06:48:57.317Z,13.39
2023-08-31T06:51:25.634Z,13.49
2023-08-31T06:53:53.362Z,13.52
2023-08-31T06:56:21.104Z,13.52
2023-08-31T06:58:48.636Z,13.52
2023-08-31T07:01:16.172Z,13.59
2023-08-31T07:03:43.892Z,13.79
2023-08-31T07:06:12.388Z,13.99
2023-08-31T07:08:41.836Z,14.28
2023-08-31T07:11:09.436Z,14.60
2023-08-31T07:13:36.988Z,14.78
2023-08-31T07:16:05.583Z,14.86
2023-08-31T07:18:33.393Z,14.85
2023-08-31T07:21:00.995Z,14.84
2023-08-31T07:23:28.847Z,14.91
2023-08-31T07:26:01.130Z,15.08
2023-08-31T07:28:28.794Z,15.28
2023-08-31T07:31:07.626Z,15.52
2023-08-31T07:33:37.095Z,15.70
2023-08-31T07:36:07.331Z,15.87
2023-08-31T07:38:35.226Z,15.91
2023-08-31T07:41:02.872Z,15.92
2023-08-31T07:43:30.964Z,15.92
2023-08-31T07:45:58.574Z,15.98
2023-08-31T07:48:26.186Z,16.14
2023-08-31T07:50:53.745Z,16.23
2023-08-31T07:53:21.412Z,16.45
2023-08-31T07:55:55.302Z,16.71
2023-08-31T07:58:24.451Z,16.95
2023-08-31T08:00:56.980Z,17.13
2023-08-31T08:03:24.988Z,17.29
2023-08-31T08:05:53.064Z,17.47
2023-08-31T08:08:20.831Z,17.64
2023-08-31T08:10:54.083Z,17.84
2023-08-31T08:13:21.814Z,17.97
2023-08-31T08:15:50.426Z,18.09
2023-08-31T08:18:17.914Z,18.24
2023-08-31T08:20:49.972Z,18.36
2023-08-31T08:23:17.647Z,18.45
2023-08-31T08:25:45.260Z,18.53
2023-08-31T08:28:12.764Z,18.60
2023-08-31T08:30:40.426Z,18.71
2023-08-31T08:33:10.180Z,18.87
2023-08-31T08:35:39.522Z,18.99
2023-08-31T08:38:07.135Z,19.05
2023-08-31T08:40:36.238Z,19.09
2023-08-31T08:43:09.271Z,19.19
2023-08-31T08:45:42.644Z,19.29
2023-08-31T08:48:10.784Z,19.30
2023-08-31T08:50:38.644Z,19.31
2023-08-31T08:53:07.611Z,19.41
2023-08-31T08:55:35.707Z,19.50
2023-08-31T08:58:04.486Z,19.60
2023-08-31T09:00:33.993Z,19.74
2023-08-31T09:03:04.871Z,19.80
2023-08-31T09:05:35.731Z,19.69
2023-08-31T09:08:13.184Z,19.61
2023-08-31T09:10:44.351Z,19.63
2023-08-31T09:13:16.828Z,19.70
2023-08-31T09:15:47.078Z,19.63
2023-08-31T09:18:17.112Z,19.83
2023-08-31T09:20:48.999Z,20.00
2023-08-31T09:23:18.052Z,20.03
2023-08-31T09:25:54.210Z,20.04
2023-08-31T09:28:30.476Z,19.95
2023-08-31T09:31:09.904Z,20.08
2023-08-31T09:33:38.396Z,20.26
2023-08-31T09:36:09.365Z,20.46
2023-08-31T09:38:44.901Z,20.66
2023-08-31T09:41:13.309Z,20.58
2023-08-31T09:43:40.900Z,20.68
2023-08-31T09:46:10.983Z,20.77
2023-08-31T09:48:41.230Z,20.61
2023-08-31T09:51:11.460Z,20.66
2023-08-31T09:53:39.259Z,20.80
2023-08-31T09:56:08.273Z,21.00
2023-08-31T09:58:36.394Z,20.90
2023-08-31T10:01:10.364Z,20.72
2023-08-31T10:03:41.747Z,20.59
2023-08-31T10:06:11.617Z,20.38
2023-08-31T10:08:40.547Z,20.19
2023-08-31T10:11:11.194Z,20.02
2023-08-31T10:13:42.273Z,19.93
2023-08-31T10:16:12.383Z,19.89
2023-08-31T10:18:40.486Z,19.80
2023-08-31T10:21:08.290Z,19.72
2023-08-31T10:23:39.363Z,19.63
2023-08-31T10:26:07.328Z,19.54
2023-08-31T10:28:42.114Z,19.54
2023-08-31T10:31:21.439Z,19.80
2023-08-31T10:34:04.678Z,19.87
2023-08-31T10:36:45.938Z,19.95
2023-08-31T10:39:19.084Z,20.13
2023-08-31T10:41:57.585Z,20.36
2023-08-31T10:44:28.375Z,20.52
2023-08-31T10:46:56.354Z,20.69
2023-08-31T10:49:26.616Z,20.84
2023-08-31T10:52:19.808Z,20.86
2023-08-31T10:54:57.057Z,20.92
2023-08-31T10:57:34.797Z,21.01
2023-08-31T11:00:03.224Z,21.09
2023-08-31T11:02:34.719Z,21.26
2023-08-31T11:05:17.348Z,21.44
2023-08-31T11:07:50.988Z,21.66
2023-08-31T11:10:22.141Z,21.86
2023-08-31T11:12:53.437Z,21.86
2023-08-31T11:15:23.932Z,21.96
2023-08-31T11:17:53.013Z,22.05
2023-08-31T11:20:29.744Z,22.10
2023-08-31T11:22:58.324Z,22.13
2023-08-31T11:25:26.661Z,22.08
2023-08-31T11:28:01.141Z,21.82
2023-08-31T11:30:32.738Z,21.60
2023-08-31T11:33:06.505Z,21.43
2023-08-31T11:35:38.221Z,21.37
2023-08-31T11:38:07.371Z,21.29
2023-08-31T11:40:35.065Z,21.22
2023-08-31T11:43:05.880Z,21.14
2023-08-31T11:45:34.037Z,20.98
2023-08-31T11:48:02.276Z,20.83
2023-08-31T11:50:30.427Z,20.61
2023-08-31T11:52:58.106Z,20.33
2023-08-31T11:55:25.616Z,20.00
2023-08-31T11:57:58.341Z,19.72
2023-08-31T12:00:26.299Z,19.44
2023-08-31T12:03:00.454Z,19.20
2023-08-31T12:05:29.967Z,19.03
2023-08-31T12:07:58.010Z,18.93
2023-08-31T12:10:27.327Z,18.87
2023-08-31T12:12:56.974Z,18.84
2023-08-31T12:15:32.143Z,18.81
2023-08-31T12:18:09.330Z,18.78
2023-08-31T12:20:47.661Z,18.69
2023-08-31T12:23:18.123Z,18.52
2023-08-31T12:25:52.401Z,18.34
2023-08-31T12:28:22.839Z,18.11
2023-08-31T12:30:55.598Z,17.88
2023-08-31T12:33:23.570Z,17.76
2023-08-31T12:35:51.590Z,17.68
2023-08-31T12:38:20.297Z,17.65
2023-08-31T12:40:47.945Z,17.62
2023-08-31T12:43:17.747Z,17.59
2023-08-31T12:45:46.029Z,17.51
2023-08-31T12:48:14.372Z,17.45
2023-08-31T12:50:42.058Z,17.42
2023-08-31T12:53:09.606Z,17.43
2023-08-31T12:55:37.299Z,17.48
2023-08-31T12:58:05.020Z,17.52
2023-08-31T13:00:32.796Z,17.57
2023-08-31T13:03:02.337Z,17.63
2023-08-31T13:05:30.174Z,17.70
2023-08-31T13:07:57.696Z,17.81
2023-08-31T13:10:25.352Z,17.85
2023-08-31T13:12:52.864Z,17.90
2023-08-31T13:15:20.358Z,17.97
2023-08-31T13:17:47.883Z,18.02
2023-08-31T13:20:15.599Z,18.06
2023-08-31T13:22:43.086Z,18.11
2023-08-31T13:25:12.501Z,18.18
2023-08-31T13:27:40.082Z,18.23
2023-08-31T13:30:10.106Z,18.29
2023-08-31T13:32:37.669Z,18.48
2023-08-31T13:35:09.238Z,18.81
2023-08-31T13:37:36.676Z,19.00
2023-08-31T13:40:08.985Z,19.09
2023-08-31T13:42:39.200Z,19.21
2023-08-31T13:45:09.281Z,19.21
2023-08-31T13:47:36.902Z,19.15
2023-08-31T13:50:05.278Z,19.05
2023-08-31T13:52:32.875Z,18.94
2023-08-31T13:55:00.560Z,18.84
2023-08-31T13:57:28.033Z,18.74
2023-08-31T13:59:55.575Z,18.67
2023-08-31T14:02:23.258Z,18.61
2023-08-31T14:04:50.778Z,18.58
2023-08-31T14:07:18.844Z,18.55
2023-08-31T14:09:46.398Z,18.49
2023-08-31T14:12:13.908Z,18.47
2023-08-31T14:14:42.680Z,18.49
2023-08-31T14:17:10.192Z,18.51
2023-08-31T14:19:38.754Z,18.57
2023-08-31T14:22:06.465Z,18.69
2023-08-31T14:24:34.064Z,19.01
2023-08-31T14:27:01.512Z,19.31
2023-08-31T14:29:29.376Z,19.55
2023-08-31T14:31:56.968Z,19.76
2023-08-31T14:34:26.204Z,19.99
2023-08-31T14:37:02.035Z,20.15
2023-08-31T14:39:32.989Z,20.25
2023-08-31T14:42:00.748Z,20.52
2023-08-31T14:44:28.317Z,20.71
2023-08-31T14:46:57.100Z,20.85
2023-08-31T14:49:26.228Z,20.89
2023-08-31T14:51:53.933Z,20.89
2023-08-31T14:54:21.947Z,20.87
2023-08-31T14:56:55.069Z,20.85
2023-08-31T14:59:22.824Z,20.77
2023-08-31T15:01:50.422Z,20.67
2023-08-31T15:04:18.134Z,20.62
2023-08-31T15:06:45.831Z,20.58
2023-08-31T15:09:13.323Z,20.53
2023-08-31T15:11:41.792Z,20.46
2023-08-31T15:14:09.387Z,20.34
2023-08-31T15:16:38.526Z,20.28
2023-08-31T15:19:06.199Z,20.25
2023-08-31T15:21:34.594Z,20.23
2023-08-31T15:24:03.793Z,20.19
2023-08-31T15:26:31.388Z,20.24
2023-08-31T15:28:58.912Z,20.39
2023-08-31T15:31:27.106Z,20.60
2023-08-31T15:33:54.866Z,20.72
2023-08-31T15:36:22.465Z,20.74
2023-08-31T15:38:50.330Z,20.66
2023-08-31T15:41:17.881Z,20.57
2023-08-31T15:43:45.605Z,20.47
2023-08-31T15:46:13.249Z,20.35
2023-08-31T15:48:40.998Z,20.22
2023-08-31T15:51:08.601Z,20.12
2023-08-31T15:53:37.293Z,20.04
2023-08-31T15:56:05.911Z,20.00
2023-08-31T15:58:33.550Z,19.95
2023-08-31T16:01:04.146Z,19.93
2023-08-31T16:03:33.278Z,19.98
2023-08-31T16:06:01.556Z,19.99
2023-08-31T16:08:29.839Z,20.03
2023-08-31T16:10:58.523Z,20.09
2023-08-31T16:13:26.252Z,20.12
2023-08-31T16:15:54.017Z,20.15
2023-08-31T16:18:21.569Z,20.12
2023-08-31T16:20:49.132Z,20.03
2023-08-31T16:23:16.658Z,19.98
2023-08-31T16:25:44.270Z,19.93
2023-08-31T16:28:12.388Z,19.86
2023-08-31T16:30:40.607Z,19.83
2023-08-31T16:33:08.278Z,19.75
2023-08-31T16:35:36.081Z,19.66
2023-08-31T16:38:04.856Z,19.56
2023-08-31T16:40:33.495Z,19.49
2023-08-31T16:43:01.001Z,19.42
2023-08-31T16:45:29.734Z,19.37
2023-08-31T16:47:57.398Z,19.33
2023-08-31T16:50:33.738Z,19.28
2023-08-31T16:53:02.294Z,19.20
2023-08-31T16:55:31.277Z,19.15
2023-08-31T16:57:59.999Z,19.12
2023-08-31T17:00:27.576Z,19.08
2023-08-31T17:02:55.209Z,19.05
2023-08-31T17:05:23.094Z,19.02
2023-08-31T17:07:50.803Z,19.01
2023-08-31T17:10:18.614Z,19.00
2023-08-31T17:12:46.196Z,18.97
2023-08-31T17:15:13.958Z,18.95
2023-08-31T17:17:45.674Z,18.90
2023-08-31T17:20:19.528Z,18.86
2023-08-31T17:22:47.750Z,18.84
2023-08-31T17:25:15.409Z,18.80
2023-08-31T17:27:43.115Z,18.79
2023-08-31T17:30:10.927Z,18.78
2023-08-31T17:32:38.983Z,18.76
2023-08-31T17:35:08.170Z,18.75
2023-08-31T17:37:37.051Z,18.72
2023-08-31T17:40:08.688Z,18.68
2023-08-31T17:42:38.248Z,18.65
2023-08-31T17:45:06.267Z,18.63
2023-08-31T17:47:34.035Z,18.59
2023-08-31T17:50:02.144Z,18.57
2023-08-31T17:52:29.937Z,18.56
2023-08-31T17:54:57.738Z,18.54
2023-08-31T17:57:29.472Z,18.49
2023-08-31T17:59:57.428Z,18.44
2023-08-31T18:02:25.131Z,18.40
2023-08-31T18:04:52.828Z,18.36
2023-08-31T18:07:20.362Z,18.28
2023-08-31T18:09:47.931Z,18.24
2023-08-31T18:12:15.565Z,18.20
2023-08-31T18:14:44.741Z,18.17
2023-08-31T18:17:12.779Z,18.13
2023-08-31T18:19:40.508Z,18.07
2023-08-31T18:22:08.085Z,18.03
2023-08-31T18:24:38.243Z,17.98
2023-08-31T18:27:11.074Z,17.93
2023-08-31T18:29:38.733Z,17.87
2023-08-31T18:32:06.864Z,17.82
2023-08-31T18:35:03.988Z,17.78
2023-08-31T18:37:31.471Z,17.69
2023-08-31T18:39:59.201Z,17.63
2023-08-31T18:42:28.749Z,17.59
2023-08-31T18:44:56.397Z,17.55
2023-08-31T18:47:23.984Z,17.50
2023-08-31T18:49:51.596Z,17.46
2023-08-31T18:52:19.127Z,17.41
2023-08-31T18:54:47.949Z,17.39
2023-08-31T18:57:15.512Z,17.34
2023-08-31T18:59:43.112Z,17.30
2023-08-31T19:02:10.738Z,17.26
2023-08-31T19:04:38.250Z,17.23
2023-08-31T19:07:05.830Z,17.19
2023-08-31T19:09:33.342Z,17.15
2023-08-31T19:12:01.046Z,17.12
2023-08-31T19:14:28.529Z,17.07
2023-08-31T19:16:56.204Z,17.04
2023-08-31T19:19:23.800Z,16.99
2023-08-31T19:21:51.347Z,16.96
2023-08-31T19:24:18.890Z,16.91
2023-08-31T19:26:46.478Z,16.87
2023-08-31T19:29:13.964Z,16.82
2023-08-31T19:31:41.595Z,16.78
2023-08-31T19:34:09.128Z,16.75
2023-08-31T19:36:36.712Z,16.70
2023-08-31T19:39:04.466Z,16.64
2023-08-31T19:41:32.498Z,16.60
2023-08-31T19:44:00.102Z,16.56
2023-08-31T19:46:27.605Z,16.49
2023-08-31T19:48:55.808Z,16.45
2023-08-31T19:51:23.454Z,16.41
2023-08-31T19:53:51.009Z,16.36
2023-08-31T19:56:19.507Z,16.31
2023-08-31T19:58:46.975Z,16.27
2023-08-31T20:01:15.559Z,16.22
2023-08-31T20:03:43.099Z,16.19
2023-08-31T20:06:10.617Z,16.14
2023-08-31T20:08:39.116Z,16.09
2023-08-31T20:11:06.801Z,16.05
2023-08-31T20:13:34.352Z,16.01
2023-08-31T20:16:05.903Z,15.97
2023-08-31T20:18:33.425Z,15.86
2023-08-31T20:21:00.880Z,15.81
2023-08-31T20:23:28.433Z,15.79
2023-08-31T20:25:56.747Z,15.78
2023-08-31T20:28:25.476Z,15.77
2023-08-31T20:30:52.999Z,15.73
2023-08-31T20:33:20.770Z,15.73
2023-08-31T20:35:49.136Z,15.70
2023-08-31T20:38:16.930Z,15.67
2023-08-31T20:40:45.229Z,15.64
2023-08-31T20:43:12.775Z,15.61
2023-08-31T20:45:40.395Z,15.58
2023-08-31T20:48:10.835Z,15.56
2023-08-31T20:50:38.733Z,15.54
2023-08-31T20:53:06.476Z,15.49
2023-08-31T20:55:34.176Z,15.46
2023-08-31T20:58:01.777Z,15.42
2023-08-31T21:00:29.462Z,15.39
2023-08-31T21:02:57.092Z,15.35
2023-08-31T21:05:24.645Z,15.33
2023-08-31T21:07:52.189Z,15.29
2023-08-31T21:10:20.872Z,15.24
2023-08-31T21:12:48.383Z,15.22
2023-08-31T21:15:15.954Z,15.18
2023-08-31T21:17:43.621Z,15.16
2023-08-31T21:20:11.613Z,15.14
2023-08-31T21:22:39.235Z,15.11
2023-08-31T21:25:07.848Z,15.09
2023-08-31T21:27:35.390Z,15.06
2023-08-31T21:30:03.156Z,15.02
2023-08-31T21:32:30.803Z,15.00
2023-08-31T21:34:58.415Z,14.97
2023-08-31T21:37:25.921Z,14.95
2023-08-31T21:39:54.058Z,14.93
2023-08-31T21:42:21.530Z,14.90
2023-08-31T21:44:49.061Z,14.87
2023-08-31T21:47:16.675Z,14.83
2023-08-31T21:49:44.580Z,14.80
2023-08-31T21:52:12.167Z,14.78
2023-08-31T21:54:39.735Z,14.77
2023-08-31T21:57:07.414Z,14.74
2023-08-31T21:59:35.089Z,14.72
2023-08-31T22:02:02.739Z,14.69
2023-08-31T22:04:31.096Z,14.67
2023-08-31T22:06:58.707Z,14.65
2023-08-31T22:09:27.118Z,14.63
2023-08-31T22:11:54.676Z,14.60
2023-08-31T22:14:22.265Z,14.58
2023-08-31T22:16:49.822Z,14.53
2023-08-31T22:19:17.477Z,14.52
2023-08-31T22:21:45.208Z,14.48
2023-08-31T22:24:12.735Z,14.45
2023-08-31T22:26:40.293Z,14.41
2023-08-31T22:29:08.129Z,14.38
2023-08-31T22:31:35.767Z,14.36
2023-08-31T22:34:03.892Z,14.35
2023-08-31T22:36:31.500Z,14.32
2023-08-31T22:38:59.992Z,14.31
2023-08-31T22:41:27.790Z,14.29
2023-08-31T22:43:56.248Z,14.28
2023-08-31T22:46:23.761Z,14.26
2023-08-31T22:48:51.332Z,14.24
2023-08-31T22:51:18.846Z,14.23
2023-08-31T22:53:46.387Z,14.21
2023-08-31T22:56:14.132Z,14.21
2023-08-31T22:58:41.712Z,14.20
2023-08-31T23:01:09.282Z,14.20
2023-08-31T23:03:36.974Z,14.22
2023-08-31T23:06:04.602Z,14.22
2023-08-31T23:08:32.119Z,14.22
2023-08-31T23:11:01.400Z,14.23
2023-08-31T23:13:29.182Z,14.23
2023-08-31T23:15:56.965Z,14.21
2023-08-31T23:18:25.093Z,14.20
2023-08-31T23:20:52.584Z,14.16
2023-08-31T23:23:22.120Z,14.12
2023-08-31T23:25:49.702Z,14.07
2023-08-31T23:28:17.243Z,14.05
2023-08-31T23:30:44.752Z,14.02
2023-08-31T23:33:12.548Z,14.01
2023-08-31T23:35:40.342Z,13.99
2023-08-31T23:38:08.531Z,13.96
2023-08-31T23:40:36.504Z,13.93
2023-08-31T23:43:04.607Z,13.90
2023-08-31T23:45:32.648Z,13.86
2023-08-31T23:48:00.397Z,13.85
2023-08-31T23:50:28.404Z,13.84
2023-08-31T23:52:55.953Z,13.83
2023-08-31T23:55:23.421Z,13.81
2023-08-31T23:57:51.063Z,13.79
